Cheyenne — 9HAK5 — position and weather

sailwx.info

Track history (hours):
 
Tides and Currents Weather Stations Pressure Air Temp Water Temp Dewpoint Dewpoint Depression Visibility Wind Speed Wind Dir Waves Ship Positions

Cheyenne

Last reported at 2016-Aug-27 00:30 UTC. Time now 2016-Aug-27 08:14 UTC.
Position N 45°09' E 036°29'.

Length 133 m; draft 3.9 m.

Type: Ship. MMSI: 249607000.

Date/timePositionNaut miles runAvg speedWind from/ knotsBaromVisibWave heightAir tempDewpointWater temp
2016-Aug-27 00:30N 45°09' E 036°29'8 8.1
2016-Aug-26 23:33N 45°16' E 036°28'8 8.0
2016-Aug-26 22:33N 45°21' E 036°38'6 5.7
2016-Aug-26 21:33N 45°26' E 036°41'  
2016-Aug-21 20:28N 46°37' E 037°23'67 8.4
2016-Aug-21 12:28N 45°34' E 036°49'7 8.1
2016-Aug-21 11:33N 45°28' E 036°43'8 7.5
2016-Aug-21 10:33N 45°21' E 036°40'5 5.4
2016-Aug-21 09:33N 45°19' E 036°33'7 6.6
2016-Aug-21 08:33N 45°13' E 036°29'2 2.0
2016-Aug-21 07:28N 45°11' E 036°31'0 0.0
2016-Aug-21 05:25N 45°11' E 036°31'0 0.0
2016-Aug-21 04:32N 45°11' E 036°31'89 7.2
2016-Aug-20 16:06N 44°06' E 035°05'7 8.1
2016-Aug-20 15:13N 44°02' E 034°57'5 8.1
2016-Aug-20 14:34N 43°59' E 034°51'8 7.9
2016-Aug-20 13:34N 43°55' E 034°41'8 7.9
2016-Aug-20 12:33N 43°50' E 034°32'8 7.9
2016-Aug-20 11:34N 43°46' E 034°23'291 7.8
2016-Aug-18 22:06N 40°59' E 028°60'3 6.0
2016-Aug-18 21:33N 40°56' E 028°60'6 5.6
2016-Aug-18 20:34N 40°51' E 029°00'5 4.9
2016-Aug-18 19:32N 40°47' E 028°56'4 3.0
2016-Aug-18 18:10N 40°43' E 028°54'3 4.3
2016-Aug-18 17:21N 40°40' E 028°53'1 0.9
2016-Aug-18 16:31N 40°40' E 028°54'6 2.0
2016-Aug-18 13:30N 40°46' E 028°54'2 1.5
2016-Aug-18 12:23N 40°48' E 028°54'1 0.7
2016-Aug-18 11:23N 40°49' E 028°54'6 6.0
2016-Aug-18 10:27N 40°51' E 028°48'106 8.2
2016-Aug-17 21:33N 40°18' E 026°35'11 7.4
2016-Aug-17 20:05N 40°12' E 026°23'  
Track history (hours):
 
Tides and Currents Weather Stations Pressure Air Temp Water Temp Dewpoint Dewpoint Depression Visibility Wind Speed Wind Dir Waves Ship Positions

Cheyenne

Last reported at 2016-Aug-27 00:30 UTC. Time now 2016-Aug-27 08:14 UTC.
Position N 45°09' E 036°29'.

Length 133 m; draft 3.9 m.

Type: Ship. MMSI: 249607000.

Date/timePositionNaut miles runAvg speedWind from/ knotsBaromVisibWave heightAir tempDewpointWater temp
2016-Aug-27 00:30N 45°09' E 036°29'8 8.1
2016-Aug-26 23:33N 45°16' E 036°28'8 8.0
2016-Aug-26 22:33N 45°21' E 036°38'6 5.7
2016-Aug-26 21:33N 45°26' E 036°41'  
2016-Aug-21 20:28N 46°37' E 037°23'67 8.4
2016-Aug-21 12:28N 45°34' E 036°49'7 8.1
2016-Aug-21 11:33N 45°28' E 036°43'8 7.5
2016-Aug-21 10:33N 45°21' E 036°40'5 5.4
2016-Aug-21 09:33N 45°19' E 036°33'7 6.6
2016-Aug-21 08:33N 45°13' E 036°29'2 2.0
2016-Aug-21 07:28N 45°11' E 036°31'0 0.0
2016-Aug-21 05:25N 45°11' E 036°31'0 0.0
2016-Aug-21 04:32N 45°11' E 036°31'89 7.2
2016-Aug-20 16:06N 44°06' E 035°05'7 8.1
2016-Aug-20 15:13N 44°02' E 034°57'5 8.1
2016-Aug-20 14:34N 43°59' E 034°51'8 7.9
2016-Aug-20 13:34N 43°55' E 034°41'8 7.9
2016-Aug-20 12:33N 43°50' E 034°32'8 7.9
2016-Aug-20 11:34N 43°46' E 034°23'291 7.8
2016-Aug-18 22:06N 40°59' E 028°60'3 6.0
2016-Aug-18 21:33N 40°56' E 028°60'6 5.6
2016-Aug-18 20:34N 40°51' E 029°00'5 4.9
2016-Aug-18 19:32N 40°47' E 028°56'4 3.0
2016-Aug-18 18:10N 40°43' E 028°54'3 4.3
2016-Aug-18 17:21N 40°40' E 028°53'1 0.9
2016-Aug-18 16:31N 40°40' E 028°54'6 2.0
2016-Aug-18 13:30N 40°46' E 028°54'2 1.5
2016-Aug-18 12:23N 40°48' E 028°54'1 0.7
2016-Aug-18 11:23N 40°49' E 028°54'6 6.0
2016-Aug-18 10:27N 40°51' E 028°48'106 8.2
2016-Aug-17 21:33N 40°18' E 026°35'11 7.4
2016-Aug-17 20:05N 40°12' E 026°23'  

Dump ship's entire track history